sensor_id;sensor_type;location;lat;lon;timestamp;temperature;humidity
65752;DHT22;52486;51.098;13.770;2023-01-13T00:01:52;25.10;54.80
65752;DHT22;52486;51.098;13.770;2023-01-13T00:04:17;25.10;54.70
65752;DHT22;52486;51.098;13.770;2023-01-13T00:06:43;25.30;54.90
65752;DHT22;52486;51.098;13.770;2023-01-13T00:09:08;26.70;55.70
65752;DHT22;52486;51.098;13.770;2023-01-13T00:11:34;25.30;54.20
65752;DHT22;52486;51.098;13.770;2023-01-13T00:13:59;25.40;54.30
65752;DHT22;52486;51.098;13.770;2023-01-13T00:16:25;25.50;54.70
65752;DHT22;52486;51.098;13.770;2023-01-13T00:18:50;25.60;54.60
65752;DHT22;52486;51.098;13.770;2023-01-13T00:21:17;25.50;54.20
65752;DHT22;52486;51.098;13.770;2023-01-13T00:23:43;25.40;54.10
65752;DHT22;52486;51.098;13.770;2023-01-13T00:26:10;25.40;54.00
65752;DHT22;52486;51.098;13.770;2023-01-13T00:28:36;25.40;54.10
65752;DHT22;52486;51.098;13.770;2023-01-13T00:31:05;25.50;54.40
65752;DHT22;52486;51.098;13.770;2023-01-13T00:33:31;25.40;51.90
65752;DHT22;52486;51.098;13.770;2023-01-13T00:35:57;25.70;54.10
65752;DHT22;52486;51.098;13.770;2023-01-13T00:38:23;25.60;54.20
65752;DHT22;52486;51.098;13.770;2023-01-13T00:41:01;25.40;54.30
65752;DHT22;52486;51.098;13.770;2023-01-13T00:43:28;25.40;51.80
65752;DHT22;52486;51.098;13.770;2023-01-13T00:45:53;25.60;54.10
65752;DHT22;52486;51.098;13.770;2023-01-13T00:48:20;25.50;54.00
65752;DHT22;52486;51.098;13.770;2023-01-13T00:50:46;25.90;53.80
65752;DHT22;52486;51.098;13.770;2023-01-13T00:53:12;25.60;54.00
65752;DHT22;52486;51.098;13.770;2023-01-13T00:55:39;25.30;53.60
65752;DHT22;52486;51.098;13.770;2023-01-13T00:58:04;25.50;54.30
65752;DHT22;52486;51.098;13.770;2023-01-13T01:00:30;25.60;54.20
65752;DHT22;52486;51.098;13.770;2023-01-13T01:02:56;25.60;53.60
65752;DHT22;52486;51.098;13.770;2023-01-13T01:05:22;25.50;53.90
65752;DHT22;52486;51.098;13.770;2023-01-13T01:07:47;25.50;54.30
65752;DHT22;52486;51.098;13.770;2023-01-13T01:10:13;25.60;54.50
65752;DHT22;52486;51.098;13.770;2023-01-13T01:12:39;25.30;54.20
65752;DHT22;52486;51.098;13.770;2023-01-13T01:15:04;25.50;54.10
65752;DHT22;52486;51.098;13.770;2023-01-13T01:17:32;25.50;52.70
65752;DHT22;52486;51.098;13.770;2023-01-13T01:19:57;25.70;54.20
65752;DHT22;52486;51.098;13.770;2023-01-13T01:22:23;25.60;54.70
65752;DHT22;52486;51.098;13.770;2023-01-13T01:24:48;25.60;54.10
65752;DHT22;52486;51.098;13.770;2023-01-13T01:27:14;25.40;54.20
65752;DHT22;52486;51.098;13.770;2023-01-13T01:29:39;25.60;54.20
65752;DHT22;52486;51.098;13.770;2023-01-13T01:32:05;25.70;53.90
65752;DHT22;52486;51.098;13.770;2023-01-13T01:34:31;25.60;54.20
65752;DHT22;52486;51.098;13.770;2023-01-13T01:36:56;25.70;53.80
65752;DHT22;52486;51.098;13.770;2023-01-13T01:39:22;25.50;53.80
65752;DHT22;52486;51.098;13.770;2023-01-13T01:41:47;25.40;54.00
65752;DHT22;52486;51.098;13.770;2023-01-13T01:47:07;25.70;51.80
65752;DHT22;52486;51.098;13.770;2023-01-13T01:49:33;25.70;53.80
65752;DHT22;52486;51.098;13.770;2023-01-13T01:52:07;25.50;53.80
65752;DHT22;52486;51.098;13.770;2023-01-13T01:54:40;25.50;51.70
65752;DHT22;52486;51.098;13.770;2023-01-13T01:57:09;25.50;51.70
65752;DHT22;52486;51.098;13.770;2023-01-13T01:59:35;25.50;53.40
65752;DHT22;52486;51.098;13.770;2023-01-13T02:02:01;25.60;53.50
65752;DHT22;52486;51.098;13.770;2023-01-13T02:04:28;25.60;53.70
65752;DHT22;52486;51.098;13.770;2023-01-13T02:06:54;25.60;53.40
65752;DHT22;52486;51.098;13.770;2023-01-13T02:09:21;25.80;54.10
65752;DHT22;52486;51.098;13.770;2023-01-13T02:11:46;25.80;53.80
65752;DHT22;52486;51.098;13.770;2023-01-13T02:14:31;25.80;52.40
65752;DHT22;52486;51.098;13.770;2023-01-13T02:25:18;25.60;51.60
65752;DHT22;52486;51.098;13.770;2023-01-13T02:27:55;25.60;51.60
65752;DHT22;52486;51.098;13.770;2023-01-13T02:35:46;25.60;53.70
65752;DHT22;52486;51.098;13.770;2023-01-13T02:38:13;25.60;53.60
65752;DHT22;52486;51.098;13.770;2023-01-13T02:40:40;25.60;53.70
65752;DHT22;52486;51.098;13.770;2023-01-13T02:43:18;25.50;53.80
65752;DHT22;52486;51.098;13.770;2023-01-13T02:46:12;25.40;51.50
65752;DHT22;52486;51.098;13.770;2023-01-13T02:48:39;25.50;51.70
65752;DHT22;52486;51.098;13.770;2023-01-13T02:51:08;25.80;53.80
65752;DHT22;52486;51.098;13.770;2023-01-13T02:53:42;25.60;53.60
65752;DHT22;52486;51.098;13.770;2023-01-13T02:56:09;25.70;51.70
65752;DHT22;52486;51.098;13.770;2023-01-13T02:58:35;25.80;53.50
65752;DHT22;52486;51.098;13.770;2023-01-13T03:01:03;25.50;53.20
65752;DHT22;52486;51.098;13.770;2023-01-13T03:03:28;25.60;53.80
65752;DHT22;52486;51.098;13.770;2023-01-13T03:08:48;25.70;51.60
65752;DHT22;52486;51.098;13.770;2023-01-13T03:11:18;25.50;51.40
65752;DHT22;52486;51.098;13.770;2023-01-13T03:13:52;25.80;51.60
65752;DHT22;52486;51.098;13.770;2023-01-13T03:24:00;25.80;53.60
65752;DHT22;52486;51.098;13.770;2023-01-13T03:26:30;25.80;51.50
65752;DHT22;52486;51.098;13.770;2023-01-13T03:29:03;25.60;53.50
65752;DHT22;52486;51.098;13.770;2023-01-13T03:31:31;25.80;51.60
65752;DHT22;52486;51.098;13.770;2023-01-13T03:34:01;25.80;53.40
65752;DHT22;52486;51.098;13.770;2023-01-13T03:36:28;25.70;53.20
65752;DHT22;52486;51.098;13.770;2023-01-13T03:38:59;25.70;53.30
65752;DHT22;52486;51.098;13.770;2023-01-13T03:43:59;25.70;53.50
65752;DHT22;52486;51.098;13.770;2023-01-13T03:49:33;25.70;51.50
65752;DHT22;52486;51.098;13.770;2023-01-13T03:52:01;25.80;53.70
65752;DHT22;52486;51.098;13.770;2023-01-13T03:54:29;25.80;53.70
65752;DHT22;52486;51.098;13.770;2023-01-13T03:57:00;25.90;53.60
65752;DHT22;52486;51.098;13.770;2023-01-13T03:59:31;25.60;51.40
65752;DHT22;52486;51.098;13.770;2023-01-13T04:02:09;25.60;53.10
65752;DHT22;52486;51.098;13.770;2023-01-13T04:07:13;25.80;53.70
65752;DHT22;52486;51.098;13.770;2023-01-13T04:09:44;25.60;51.30
65752;DHT22;52486;51.098;13.770;2023-01-13T04:14:47;25.70;51.30
65752;DHT22;52486;51.098;13.770;2023-01-13T04:17:14;25.80;53.40
65752;DHT22;52486;51.098;13.770;2023-01-13T04:19:40;25.90;53.30
65752;DHT22;52486;51.098;13.770;2023-01-13T04:22:05;25.80;53.60
65752;DHT22;52486;51.098;13.770;2023-01-13T04:24:31;25.60;53.40
65752;DHT22;52486;51.098;13.770;2023-01-13T04:26:56;25.60;53.30
65752;DHT22;52486;51.098;13.770;2023-01-13T04:29:22;25.40;53.30
65752;DHT22;52486;51.098;13.770;2023-01-13T04:31:48;25.70;53.40
65752;DHT22;52486;51.098;13.770;2023-01-13T04:34:13;25.70;53.70
65752;DHT22;52486;51.098;13.770;2023-01-13T04:36:39;25.80;53.80
65752;DHT22;52486;51.098;13.770;2023-01-13T04:39:05;25.60;53.30
65752;DHT22;52486;51.098;13.770;2023-01-13T04:41:31;25.80;51.40
65752;DHT22;52486;51.098;13.770;2023-01-13T04:44:15;25.60;51.60
65752;DHT22;52486;51.098;13.770;2023-01-13T04:46:41;25.80;53.30
65752;DHT22;52486;51.098;13.770;2023-01-13T04:49:06;25.90;53.80
65752;DHT22;52486;51.098;13.770;2023-01-13T04:51:32;25.60;53.60
65752;DHT22;52486;51.098;13.770;2023-01-13T04:53:57;25.90;53.30
65752;DHT22;52486;51.098;13.770;2023-01-13T04:56:23;25.90;53.50
65752;DHT22;52486;51.098;13.770;2023-01-13T04:58:49;25.70;53.50
65752;DHT22;52486;51.098;13.770;2023-01-13T05:01:14;25.70;53.30
65752;DHT22;52486;51.098;13.770;2023-01-13T05:03:40;25.70;53.40
65752;DHT22;52486;51.098;13.770;2023-01-13T05:06:05;25.70;53.60
65752;DHT22;52486;51.098;13.770;2023-01-13T05:08:31;25.80;53.50
65752;DHT22;52486;51.098;13.770;2023-01-13T05:10:58;25.80;53.60
65752;DHT22;52486;51.098;13.770;2023-01-13T05:13:24;25.80;53.40
65752;DHT22;52486;51.098;13.770;2023-01-13T05:16:19;25.70;51.80
65752;DHT22;52486;51.098;13.770;2023-01-13T05:19:03;25.70;51.60
65752;DHT22;52486;51.098;13.770;2023-01-13T05:21:28;25.60;53.20
65752;DHT22;52486;51.098;13.770;2023-01-13T05:24:13;25.60;51.50
65752;DHT22;52486;51.098;13.770;2023-01-13T05:26:57;25.70;51.50
65752;DHT22;52486;51.098;13.770;2023-01-13T05:29:22;25.90;53.70
65752;DHT22;52486;51.098;13.770;2023-01-13T05:31:48;25.70;53.10
65752;DHT22;52486;51.098;13.770;2023-01-13T05:34:14;26.00;53.70
65752;DHT22;52486;51.098;13.770;2023-01-13T05:36:39;25.90;53.20
65752;DHT22;52486;51.098;13.770;2023-01-13T05:39:05;25.80;53.30
65752;DHT22;52486;51.098;13.770;2023-01-13T05:41:30;26.00;54.20
65752;DHT22;52486;51.098;13.770;2023-01-13T05:44:15;26.00;51.60
65752;DHT22;52486;51.098;13.770;2023-01-13T05:46:40;25.90;53.10
65752;DHT22;52486;51.098;13.770;2023-01-13T05:49:06;25.70;53.30
65752;DHT22;52486;51.098;13.770;2023-01-13T05:51:32;25.60;52.90
65752;DHT22;52486;51.098;13.770;2023-01-13T05:53:57;25.90;53.20
65752;DHT22;52486;51.098;13.770;2023-01-13T05:56:23;25.80;52.90
65752;DHT22;52486;51.098;13.770;2023-01-13T05:58:49;25.70;53.00
65752;DHT22;52486;51.098;13.770;2023-01-13T06:01:14;25.70;52.90
65752;DHT22;52486;51.098;13.770;2023-01-13T06:03:40;25.90;53.40
65752;DHT22;52486;51.098;13.770;2023-01-13T06:06:05;25.90;53.40
65752;DHT22;52486;51.098;13.770;2023-01-13T06:08:33;25.70;53.10
65752;DHT22;52486;51.098;13.770;2023-01-13T06:10:58;25.70;53.50
65752;DHT22;52486;51.098;13.770;2023-01-13T06:13:24;25.70;53.40
65752;DHT22;52486;51.098;13.770;2023-01-13T06:15:50;25.80;53.20
65752;DHT22;52486;51.098;13.770;2023-01-13T06:18:15;25.70;53.00
65752;DHT22;52486;51.098;13.770;2023-01-13T06:20:41;25.90;53.50
65752;DHT22;52486;51.098;13.770;2023-01-13T06:23:10;25.90;53.40
65752;DHT22;52486;51.098;13.770;2023-01-13T06:25:41;25.80;52.90
65752;DHT22;52486;51.098;13.770;2023-01-13T06:28:08;26.00;51.10
65752;DHT22;52486;51.098;13.770;2023-01-13T06:30:38;25.70;53.10
65752;DHT22;52486;51.098;13.770;2023-01-13T06:33:07;25.90;51.00
65752;DHT22;52486;51.098;13.770;2023-01-13T06:35:35;25.80;53.00
65752;DHT22;52486;51.098;13.770;2023-01-13T06:38:02;26.00;52.90
65752;DHT22;52486;51.098;13.770;2023-01-13T06:40:31;25.70;53.00
65752;DHT22;52486;51.098;13.770;2023-01-13T06:42:57;25.80;53.20
65752;DHT22;52486;51.098;13.770;2023-01-13T06:45:42;26.00;53.00
65752;DHT22;52486;51.098;13.770;2023-01-13T06:48:09;25.90;52.60
65752;DHT22;52486;51.098;13.770;2023-01-13T06:50:34;25.70;53.40
65752;DHT22;52486;51.098;13.770;2023-01-13T06:53:00;25.80;53.50
65752;DHT22;52486;51.098;13.770;2023-01-13T06:55:25;25.80;53.10
65752;DHT22;52486;51.098;13.770;2023-01-13T06:57:52;25.80;53.20
65752;DHT22;52486;51.098;13.770;2023-01-13T07:00:18;25.80;53.10
65752;DHT22;52486;51.098;13.770;2023-01-13T07:02:44;25.70;52.30
65752;DHT22;52486;51.098;13.770;2023-01-13T07:05:10;25.80;53.40
65752;DHT22;52486;51.098;13.770;2023-01-13T07:07:36;25.90;52.60
65752;DHT22;52486;51.098;13.770;2023-01-13T07:10:01;25.80;53.70
65752;DHT22;52486;51.098;13.770;2023-01-13T07:12:28;26.00;53.10
65752;DHT22;52486;51.098;13.770;2023-01-13T07:14:53;25.70;52.70
65752;DHT22;52486;51.098;13.770;2023-01-13T07:17:37;25.80;50.70
65752;DHT22;52486;51.098;13.770;2023-01-13T07:20:04;25.20;51.10
65752;DHT22;52486;51.098;13.770;2023-01-13T07:22:29;24.90;51.00
65752;DHT22;52486;51.098;13.770;2023-01-13T07:24:55;24.60;53.30
65752;DHT22;52486;51.098;13.770;2023-01-13T07:27:22;24.40;53.40
65752;DHT22;52486;51.098;13.770;2023-01-13T07:29:48;24.60;54.10
65752;DHT22;52486;51.098;13.770;2023-01-13T07:32:13;24.70;53.40
65752;DHT22;52486;51.098;13.770;2023-01-13T07:34:39;24.70;53.20
65752;DHT22;52486;51.098;13.770;2023-01-13T07:37:05;24.70;53.80
65752;DHT22;52486;51.098;13.770;2023-01-13T07:39:30;25.10;53.90
65752;DHT22;52486;51.098;13.770;2023-01-13T07:41:56;25.30;53.70
65752;DHT22;52486;51.098;13.770;2023-01-13T07:44:40;25.00;51.40
65752;DHT22;52486;51.098;13.770;2023-01-13T07:47:06;25.00;53.20
65752;DHT22;52486;51.098;13.770;2023-01-13T07:49:34;25.20;52.70
65752;DHT22;52486;51.098;13.770;2023-01-13T07:52:00;25.20;53.20
65752;DHT22;52486;51.098;13.770;2023-01-13T07:54:26;25.30;53.30
65752;DHT22;52486;51.098;13.770;2023-01-13T07:56:52;25.40;51.90
65752;DHT22;52486;51.098;13.770;2023-01-13T07:59:17;25.50;52.60
65752;DHT22;52486;51.098;13.770;2023-01-13T08:01:43;25.70;53.00
65752;DHT22;52486;51.098;13.770;2023-01-13T08:04:08;25.50;53.20
65752;DHT22;52486;51.098;13.770;2023-01-13T08:06:34;25.40;53.00
65752;DHT22;52486;51.098;13.770;2023-01-13T08:09:00;25.30;52.40
65752;DHT22;52486;51.098;13.770;2023-01-13T08:11:26;25.60;53.20
65752;DHT22;52486;51.098;13.770;2023-01-13T08:13:55;25.50;53.70
65752;DHT22;52486;51.098;13.770;2023-01-13T08:16:21;25.60;50.50
65752;DHT22;52486;51.098;13.770;2023-01-13T08:18:48;25.80;52.30
65752;DHT22;52486;51.098;13.770;2023-01-13T08:21:13;25.60;52.60
65752;DHT22;52486;51.098;13.770;2023-01-13T08:23:40;25.50;52.10
65752;DHT22;52486;51.098;13.770;2023-01-13T08:26:06;25.60;52.40
65752;DHT22;52486;51.098;13.770;2023-01-13T08:28:32;25.70;52.50
65752;DHT22;52486;51.098;13.770;2023-01-13T08:30:59;25.70;52.70
65752;DHT22;52486;51.098;13.770;2023-01-13T08:33:25;25.60;52.20
65752;DHT22;52486;51.098;13.770;2023-01-13T08:35:50;25.50;52.90
65752;DHT22;52486;51.098;13.770;2023-01-13T08:38:17;25.50;52.20
65752;DHT22;52486;51.098;13.770;2023-01-13T08:40:43;25.80;52.30
65752;DHT22;52486;51.098;13.770;2023-01-13T08:43:09;25.90;52.40
65752;DHT22;52486;51.098;13.770;2023-01-13T08:45:35;25.90;51.30
65752;DHT22;52486;51.098;13.770;2023-01-13T08:48:01;25.70;52.20
65752;DHT22;52486;51.098;13.770;2023-01-13T08:50:26;26.10;52.30
65752;DHT22;52486;51.098;13.770;2023-01-13T08:52:52;25.80;52.50
65752;DHT22;52486;51.098;13.770;2023-01-13T08:55:18;25.90;52.60
65752;DHT22;52486;51.098;13.770;2023-01-13T08:57:43;26.00;52.00
65752;DHT22;52486;51.098;13.770;2023-01-13T09:00:09;25.90;52.70
65752;DHT22;52486;51.098;13.770;2023-01-13T09:02:35;26.10;51.70
65752;DHT22;52486;51.098;13.770;2023-01-13T09:05:03;26.10;52.20
65752;DHT22;52486;51.098;13.770;2023-01-13T09:07:32;25.90;51.80
65752;DHT22;52486;51.098;13.770;2023-01-13T09:09:57;26.10;52.50
65752;DHT22;52486;51.098;13.770;2023-01-13T09:12:23;26.20;52.40
65752;DHT22;52486;51.098;13.770;2023-01-13T09:15:08;26.00;50.80
65752;DHT22;52486;51.098;13.770;2023-01-13T09:17:34;26.20;51.70
65752;DHT22;52486;51.098;13.770;2023-01-13T09:19:59;26.00;52.20
65752;DHT22;52486;51.098;13.770;2023-01-13T09:22:26;26.10;52.30
65752;DHT22;52486;51.098;13.770;2023-01-13T09:24:52;26.30;52.10
65752;DHT22;52486;51.098;13.770;2023-01-13T09:27:18;26.00;51.70
65752;DHT22;52486;51.098;13.770;2023-01-13T09:29:43;26.00;51.90
65752;DHT22;52486;51.098;13.770;2023-01-13T09:32:12;26.20;52.60
65752;DHT22;52486;51.098;13.770;2023-01-13T09:34:38;26.10;51.80
65752;DHT22;52486;51.098;13.770;2023-01-13T09:37:22;26.20;50.60
65752;DHT22;52486;51.098;13.770;2023-01-13T09:39:48;26.30;52.30
65752;DHT22;52486;51.098;13.770;2023-01-13T09:45:04;26.20;50.50
65752;DHT22;52486;51.098;13.770;2023-01-13T09:47:32;26.00;52.50
65752;DHT22;52486;51.098;13.770;2023-01-13T09:50:16;26.10;52.60
65752;DHT22;52486;51.098;13.770;2023-01-13T09:52:44;26.00;50.80
65752;DHT22;52486;51.098;13.770;2023-01-13T09:55:43;26.00;52.70
65752;DHT22;52486;51.098;13.770;2023-01-13T09:58:06;26.00;50.90
65752;DHT22;52486;51.098;13.770;2023-01-13T10:00:36;25.30;52.40
65752;DHT22;52486;51.098;13.770;2023-01-13T10:06:10;25.80;51.50
65752;DHT22;52486;51.098;13.770;2023-01-13T10:08:34;25.90;53.70
65752;DHT22;52486;51.098;13.770;2023-01-13T10:11:03;25.90;53.70
65752;DHT22;52486;51.098;13.770;2023-01-13T10:13:54;25.80;53.20
65752;DHT22;52486;51.098;13.770;2023-01-13T10:16:23;25.90;53.40
65752;DHT22;52486;51.098;13.770;2023-01-13T10:19:10;25.60;53.50
65752;DHT22;52486;51.098;13.770;2023-01-13T10:27:02;25.70;51.80
65752;DHT22;52486;51.098;13.770;2023-01-13T10:29:29;25.60;53.90
65752;DHT22;52486;51.098;13.770;2023-01-13T10:31:55;25.60;53.90
65752;DHT22;52486;51.098;13.770;2023-01-13T10:34:22;25.80;53.60
65752;DHT22;52486;51.098;13.770;2023-01-13T10:39:23;25.90;52.10
65752;DHT22;52486;51.098;13.770;2023-01-13T10:41:59;25.80;53.60
65752;DHT22;52486;51.098;13.770;2023-01-13T10:44:24;25.80;53.80
65752;DHT22;52486;51.098;13.770;2023-01-13T10:46:51;25.80;54.20
65752;DHT22;52486;51.098;13.770;2023-01-13T10:49:31;25.70;53.90
65752;DHT22;52486;51.098;13.770;2023-01-13T10:51:58;25.70;51.90
65752;DHT22;52486;51.098;13.770;2023-01-13T10:54:24;25.90;54.10
65752;DHT22;52486;51.098;13.770;2023-01-13T10:57:11;25.80;54.00
65752;DHT22;52486;51.098;13.770;2023-01-13T10:59:35;25.60;53.70
65752;DHT22;52486;51.098;13.770;2023-01-13T11:04:36;25.80;52.00
65752;DHT22;52486;51.098;13.770;2023-01-13T11:07:03;25.70;52.10
65752;DHT22;52486;51.098;13.770;2023-01-13T11:09:29;25.90;54.40
65752;DHT22;52486;51.098;13.770;2023-01-13T11:11:56;25.80;54.20
65752;DHT22;52486;51.098;13.770;2023-01-13T11:22:36;26.20;52.10
65752;DHT22;52486;51.098;13.770;2023-01-13T11:25:04;25.90;53.10
65752;DHT22;52486;51.098;13.770;2023-01-13T11:27:45;25.70;51.80
65752;DHT22;52486;51.098;13.770;2023-01-13T11:30:17;25.70;51.10
65752;DHT22;52486;51.098;13.770;2023-01-13T11:32:52;25.90;52.60
65752;DHT22;52486;51.098;13.770;2023-01-13T11:35:22;25.60;54.40
65752;DHT22;52486;51.098;13.770;2023-01-13T11:37:52;25.80;53.90
65752;DHT22;52486;51.098;13.770;2023-01-13T11:40:22;25.90;52.00
65752;DHT22;52486;51.098;13.770;2023-01-13T11:43:00;25.70;53.40
65752;DHT22;52486;51.098;13.770;2023-01-13T11:45:34;25.50;53.30
65752;DHT22;52486;51.098;13.770;2023-01-13T11:48:01;25.90;52.10
65752;DHT22;52486;51.098;13.770;2023-01-13T11:50:33;25.90;54.50
65752;DHT22;52486;51.098;13.770;2023-01-13T11:53:08;25.80;52.30
65752;DHT22;52486;51.098;13.770;2023-01-13T11:55:46;25.80;51.90
65752;DHT22;52486;51.098;13.770;2023-01-13T12:06:33;26.30;51.50
65752;DHT22;52486;51.098;13.770;2023-01-13T12:16:59;26.20;50.40
65752;DHT22;52486;51.098;13.770;2023-01-13T12:19:30;26.50;52.60
65752;DHT22;52486;51.098;13.770;2023-01-13T12:22:15;26.60;52.40
65752;DHT22;52486;51.098;13.770;2023-01-13T12:29:37;26.60;52.10
65752;DHT22;52486;51.098;13.770;2023-01-13T12:32:09;26.60;52.20
65752;DHT22;52486;51.098;13.770;2023-01-13T12:37:13;26.80;49.70
65752;DHT22;52486;51.098;13.770;2023-01-13T12:45:18;27.20;49.50
65752;DHT22;52486;51.098;13.770;2023-01-13T12:47:44;27.00;51.30
65752;DHT22;52486;51.098;13.770;2023-01-13T12:52:47;27.30;48.80
65752;DHT22;52486;51.098;13.770;2023-01-13T12:55:15;27.20;50.80
65752;DHT22;52486;51.098;13.770;2023-01-13T13:08:06;27.70;49.10
65752;DHT22;52486;51.098;13.770;2023-01-13T13:10:37;27.80;50.80
65752;DHT22;52486;51.098;13.770;2023-01-13T13:13:19;27.80;51.20
65752;DHT22;52486;51.098;13.770;2023-01-13T13:15:45;27.70;48.90
65752;DHT22;52486;51.098;13.770;2023-01-13T13:20:59;28.10;49.30
65752;DHT22;52486;51.098;13.770;2023-01-13T13:40:53;28.50;49.70
65752;DHT22;52486;51.098;13.770;2023-01-13T13:43:43;27.10;60.20
65752;DHT22;52486;51.098;13.770;2023-01-13T13:46:30;28.10;52.80
65752;DHT22;52486;51.098;13.770;2023-01-13T13:49:16;27.40;63.40
65752;DHT22;52486;51.098;13.770;2023-01-13T13:54:19;27.90;55.70
65752;DHT22;52486;51.098;13.770;2023-01-13T13:56:46;28.30;55.10
65752;DHT22;52486;51.098;13.770;2023-01-13T13:59:18;30.10;69.30
65752;DHT22;52486;51.098;13.770;2023-01-13T14:01:51;26.70;54.10
65752;DHT22;52486;51.098;13.770;2023-01-13T14:04:23;27.10;65.80
65752;DHT22;52486;51.098;13.770;2023-01-13T14:07:04;28.60;51.10
65752;DHT22;52486;51.098;13.770;2023-01-13T14:09:44;27.60;65.00
65752;DHT22;52486;51.098;13.770;2023-01-13T14:12:22;27.70;65.20
65752;DHT22;52486;51.098;13.770;2023-01-13T14:14:48;27.70;65.90
65752;DHT22;52486;51.098;13.770;2023-01-13T14:17:24;28.40;66.50
65752;DHT22;52486;51.098;13.770;2023-01-13T14:20:13;27.90;65.60
65752;DHT22;52486;51.098;13.770;2023-01-13T14:22:49;28.20;53.50
65752;DHT22;52486;51.098;13.770;2023-01-13T14:28:16;27.40;65.40
65752;DHT22;52486;51.098;13.770;2023-01-13T14:30:43;27.30;65.20
65752;DHT22;52486;51.098;13.770;2023-01-13T14:33:15;27.70;65.70
65752;DHT22;52486;51.098;13.770;2023-01-13T14:38:32;26.80;65.00
65752;DHT22;52486;51.098;13.770;2023-01-13T14:43:44;27.80;66.20
65752;DHT22;52486;51.098;13.770;2023-01-13T14:46:10;29.20;66.50
65752;DHT22;52486;51.098;13.770;2023-01-13T14:51:06;28.20;65.70
65752;DHT22;52486;51.098;13.770;2023-01-13T14:53:36;28.10;54.20
65752;DHT22;52486;51.098;13.770;2023-01-13T15:01:57;27.70;51.60
65752;DHT22;52486;51.098;13.770;2023-01-13T15:04:31;26.60;64.90
65752;DHT22;52486;51.098;13.770;2023-01-13T15:06:58;26.80;65.50
65752;DHT22;52486;51.098;13.770;2023-01-13T15:09:28;27.90;53.90
65752;DHT22;52486;51.098;13.770;2023-01-13T15:12:16;27.80;51.70
65752;DHT22;52486;51.098;13.770;2023-01-13T15:14:49;27.60;54.10
65752;DHT22;52486;51.098;13.770;2023-01-13T15:17:16;26.40;65.60
65752;DHT22;52486;51.098;13.770;2023-01-13T15:19:42;29.30;67.90
65752;DHT22;52486;51.098;13.770;2023-01-13T15:24:34;27.00;58.20
65752;DHT22;52486;51.098;13.770;2023-01-13T15:29:26;26.90;66.10
65752;DHT22;52486;51.098;13.770;2023-01-13T15:31:53;26.40;65.80
65752;DHT22;52486;51.098;13.770;2023-01-13T15:34:19;26.60;65.60
65752;DHT22;52486;51.098;13.770;2023-01-13T15:36:45;26.50;66.20
65752;DHT22;52486;51.098;13.770;2023-01-13T15:39:11;27.60;54.10
65752;DHT22;52486;51.098;13.770;2023-01-13T15:47:07;28.00;64.40
65752;DHT22;52486;51.098;13.770;2023-01-13T15:52:44;26.80;65.90
65752;DHT22;52486;51.098;13.770;2023-01-13T15:54:51;27.50;66.40
65752;DHT22;52486;51.098;13.770;2023-01-13T15:57:24;29.40;67.90
65752;DHT22;52486;51.098;13.770;2023-01-13T15:59:54;28.10;66.60
65752;DHT22;52486;51.098;13.770;2023-01-13T16:02:20;26.40;65.80
65752;DHT22;52486;51.098;13.770;2023-01-13T16:04:47;29.30;54.50
65752;DHT22;52486;51.098;13.770;2023-01-13T16:07:15;27.70;54.30
65752;DHT22;52486;51.098;13.770;2023-01-13T16:12:07;28.90;67.50
65752;DHT22;52486;51.098;13.770;2023-01-13T16:14:33;27.40;66.50
65752;DHT22;52486;51.098;13.770;2023-01-13T16:17:01;26.50;57.10
65752;DHT22;52486;51.098;13.770;2023-01-13T16:21:54;28.80;67.40
65752;DHT22;52486;51.098;13.770;2023-01-13T16:24:20;29.40;67.90
65752;DHT22;52486;51.098;13.770;2023-01-13T16:26:45;26.60;65.70
65752;DHT22;52486;51.098;13.770;2023-01-13T16:29:12;27.00;65.80
65752;DHT22;52486;51.098;13.770;2023-01-13T16:34:04;27.10;59.70
65752;DHT22;52486;51.098;13.770;2023-01-13T16:36:34;29.70;66.80
65752;DHT22;52486;51.098;13.770;2023-01-13T16:39:00;27.70;65.30
65752;DHT22;52486;51.098;13.770;2023-01-13T16:41:26;29.50;66.60
65752;DHT22;52486;51.098;13.770;2023-01-13T16:43:52;29.60;66.60
65752;DHT22;52486;51.098;13.770;2023-01-13T16:46:28;27.80;50.50
65752;DHT22;52486;51.098;13.770;2023-01-13T16:48:56;26.70;64.40
65752;DHT22;52486;51.098;13.770;2023-01-13T16:51:23;28.70;65.90
65752;DHT22;52486;51.098;13.770;2023-01-13T16:53:49;28.30;59.70
65752;DHT22;52486;51.098;13.770;2023-01-13T16:56:32;27.90;50.80
65752;DHT22;52486;51.098;13.770;2023-01-13T16:59:20;28.80;66.20
65752;DHT22;52486;51.098;13.770;2023-01-13T17:01:45;29.60;67.00
65752;DHT22;52486;51.098;13.770;2023-01-13T17:04:21;28.50;66.20
65752;DHT22;52486;51.098;13.770;2023-01-13T17:06:58;27.30;64.50
65752;DHT22;52486;51.098;13.770;2023-01-13T17:09:26;29.20;66.90
65752;DHT22;52486;51.098;13.770;2023-01-13T17:14:18;27.70;65.90
65752;DHT22;52486;51.098;13.770;2023-01-13T17:16:48;26.50;65.20
65752;DHT22;52486;51.098;13.770;2023-01-13T17:19:14;26.90;61.80
65752;DHT22;52486;51.098;13.770;2023-01-13T17:21:39;27.40;66.00
65752;DHT22;52486;51.098;13.770;2023-01-13T17:24:05;25.90;65.10
65752;DHT22;52486;51.098;13.770;2023-01-13T17:26:40;26.50;65.60
65752;DHT22;52486;51.098;13.770;2023-01-13T17:29:12;25.80;65.20
65752;DHT22;52486;51.098;13.770;2023-01-13T17:31:38;25.90;65.40
65752;DHT22;52486;51.098;13.770;2023-01-13T17:34:04;26.10;65.50
65752;DHT22;52486;51.098;13.770;2023-01-13T17:36:31;27.70;54.10
65752;DHT22;52486;51.098;13.770;2023-01-13T17:38:57;27.00;52.70
65752;DHT22;52486;51.098;13.770;2023-01-13T17:41:23;27.30;66.40
65752;DHT22;52486;51.098;13.770;2023-01-13T17:43:50;28.10;67.10
65752;DHT22;52486;51.098;13.770;2023-01-13T17:48:45;26.10;61.80
65752;DHT22;52486;51.098;13.770;2023-01-13T17:51:12;26.80;53.80
65752;DHT22;52486;51.098;13.770;2023-01-13T17:53:38;27.60;53.20
65752;DHT22;52486;51.098;13.770;2023-01-13T17:56:11;28.00;67.10
65752;DHT22;52486;51.098;13.770;2023-01-13T18:01:08;25.80;65.60
65752;DHT22;52486;51.098;13.770;2023-01-13T18:06:02;28.00;67.20
65752;DHT22;52486;51.098;13.770;2023-01-13T18:10:54;27.40;66.90
65752;DHT22;52486;51.098;13.770;2023-01-13T18:13:22;25.60;63.10
65752;DHT22;52486;51.098;13.770;2023-01-13T18:18:14;26.00;55.50
65752;DHT22;52486;51.098;13.770;2023-01-13T18:23:24;26.30;66.50
65752;DHT22;52486;51.098;13.770;2023-01-13T18:26:19;26.80;66.90
65752;DHT22;52486;51.098;13.770;2023-01-13T18:29:03;26.80;62.70